Rechercher aéroport 
image banner adimage banner ad
image banner ad

FYGREU - Greub

Situé à , Namibia

ICAO - , IATA -

Données fournies par Airmate  

Information générale

Coordonnées: S23°6'45" E16°41'34"
Élévation : 5249 feet MSL.
 
Voir autres Aéroports à Khomae

Données opérationnelles

Accessible au public
Heure actuelle UTC:
Heure actuelle locale:
Météo à : FYWE - Windhoek/Eros ( 69 km )
METAR: FYWE 170600Z 17007KT CAVOK 18/11 Q1019
TAF: TAF FYWE 170500Z 1706/1715 18007KT CAVOK BECMG 1709/1711 10006KT 9999 SCT050
Voir NOTAMs / SUP AIP / TFR affectant cet aéroport [VIEW]
Fréquences de communication: [VIEW]

Pistes:

Identifiant RWYQFULongueur (ft)Largeur (ft)SurfaceLDA (ft)
08160°426582SAND
26340°426582SAND

Coordonnées de l'aéroport

Adresse: Namibia

Vue satellite de FYGREU